Terminal Aerodrome Forecast
Issued by NWS

Home | Current Version | Previous Version | Text Only | Print | Product List | Glossary On
Versions: 1 2 3 4 5 6 7 8 9 10 11 12 13 14 15 16 17 18 19 20 21 22 23 24 25 26
000
FTUS43 KGRB 252000 AAA
TAFCWA
TAF AMD
KCWA 252043Z 2521/2618 25006KT P6SM SCT015
      TEMPO 2521/2523 -SN BKN015
     FM252300 VRB03KT P6SM BKN040 BKN070
     FM260200 00000KT P6SM BKN250
     FM260700 11003KT 4SM BR BKN250
     FM261100 00000KT 2SM BR SCT100 BKN200
     FM261600 06003KT 6SM HZ SCT080 BKN150=

USA.gov is the U.S. government's official web portal to all federal, state and local government web resources and services.